LAN274 SCTE-SCEL
Flight info
| Callsign | LAN274 |
|---|---|
| Flight time | 1h 23m |
| Altitude | 34000 |
| Route | ANROS UQ802 EROLO |
| Aircraft | A320/M-SDE3FGHIRWY/LB1 |
Departure
| Time | 2026-05-04 21:00 |
|---|---|
| Airport | El Tepual International Airport (SCTE) |
Arrival
| Time | 2026-05-04 22:23 |
|---|---|
| Airport | Comodoro Arturo Merino Benítez International Airport (SCEL) |
| Time | Latitude | Longitude | Altitude | Speed | Heading |
|---|---|---|---|---|---|
| 2026-05-04 20:15 | -41.43295 | -73.09745 | 301 ft | 0 kts | 271° |
| 2026-05-04 20:51 | -41.43295 | -73.09721 | 301 ft | 4 kts | 271° |
| 2026-05-04 20:51 | -41.43295 | -73.09685 | 301 ft | 4 kts | 271° |
| 2026-05-04 20:51 | -41.43296 | -73.09649 | 301 ft | 4 kts | 270° |
| 2026-05-04 20:51 | -41.43295 | -73.09613 | 301 ft | 4 kts | 263° |
| 2026-05-04 20:52 | -41.43291 | -73.09585 | 301 ft | 0 kts | 258° |
| 2026-05-04 20:54 | -41.43317 | -73.09597 | 305 ft | 9 kts | 183° |
| 2026-05-04 20:54 | -41.43401 | -73.09599 | 301 ft | 16 kts | 180° |
| 2026-05-04 20:54 | -41.43529 | -73.09603 | 301 ft | 21 kts | 181° |
| 2026-05-04 20:55 | -41.43690 | -73.09609 | 301 ft | 24 kts | 182° |
| 2026-05-04 20:55 | -41.43865 | -73.09616 | 300 ft | 26 kts | 182° |
| 2026-05-04 20:55 | -41.44052 | -73.09623 | 300 ft | 27 kts | 181° |
| 2026-05-04 20:55 | -41.44245 | -73.09631 | 299 ft | 28 kts | 181° |
| 2026-05-04 20:56 | -41.44445 | -73.09637 | 300 ft | 29 kts | 181° |
| 2026-05-04 20:56 | -41.44650 | -73.09644 | 302 ft | 30 kts | 181° |
| 2026-05-04 20:56 | -41.44860 | -73.09650 | 301 ft | 29 kts | 181° |
| 2026-05-04 20:56 | -41.44989 | -73.09654 | 302 ft | 14 kts | 181° |
| 2026-05-04 20:57 | -41.45065 | -73.09616 | 303 ft | 11 kts | 109° |
| 2026-05-04 20:57 | -41.45067 | -73.09565 | 306 ft | 0 kts | 91° |
| 2026-05-04 20:58 | -41.45068 | -73.09549 | 306 ft | 5 kts | 91° |
| 2026-05-04 20:58 | -41.45069 | -73.09492 | 313 ft | 7 kts | 92° |
| 2026-05-04 20:59 | -41.45028 | -73.09437 | 310 ft | 15 kts | 6° |
| 2026-05-04 20:59 | -41.44722 | -73.09432 | 297 ft | 80 kts | 1° |
| 2026-05-04 20:59 | -41.43950 | -73.09407 | 293 ft | 137 kts | 1° |
| 2026-05-04 20:59 | -41.42889 | -73.09354 | 596 ft | 157 kts | 1° |
| 2026-05-04 21:00 | -41.41786 | -73.09307 | 1272 ft | 160 kts | 359° |
| 2026-05-04 21:00 | -41.40657 | -73.09237 | 1932 ft | 164 kts | 358° |
| 2026-05-04 21:00 | -41.39473 | -73.09197 | 2386 ft | 179 kts | 356° |
| 2026-05-04 21:00 | -41.38152 | -73.09171 | 2708 ft | 199 kts | 356° |
| 2026-05-04 21:01 | -41.36707 | -73.09136 | 3051 ft | 217 kts | 357° |
| 2026-05-04 21:01 | -41.35113 | -73.09085 | 3376 ft | 242 kts | 357° |
| 2026-05-04 21:01 | -41.33372 | -73.09022 | 3988 ft | 255 kts | 357° |
| 2026-05-04 21:01 | -41.31579 | -73.08949 | 4890 ft | 260 kts | 357° |
| 2026-05-04 21:02 | -41.29765 | -73.08874 | 5809 ft | 262 kts | 356° |
| 2026-05-04 21:02 | -41.27936 | -73.08800 | 6737 ft | 264 kts | 356° |
| 2026-05-04 21:02 | -41.26091 | -73.08714 | 7606 ft | 268 kts | 359° |
| 2026-05-04 21:02 | -41.24226 | -73.08349 | 8455 ft | 273 kts | 3° |
| 2026-05-04 21:03 | -41.22319 | -73.07945 | 9323 ft | 275 kts | 2° |
| 2026-05-04 21:03 | -41.20418 | -73.07550 | 10145 ft | 278 kts | 2° |
| 2026-05-04 21:03 | -41.18451 | -73.07146 | 10556 ft | 297 kts | 2° |
| 2026-05-04 21:03 | -41.16328 | -73.06717 | 10785 ft | 320 kts | 2° |
| 2026-05-04 21:04 | -41.14081 | -73.06253 | 11283 ft | 332 kts | 2° |
| 2026-05-04 21:04 | -41.11777 | -73.05760 | 11935 ft | 339 kts | 2° |
| 2026-05-04 21:04 | -41.09429 | -73.05248 | 12594 ft | 345 kts | 2° |
| 2026-05-04 21:04 | -41.07033 | -73.04724 | 13243 ft | 351 kts | 1° |
| 2026-05-04 21:05 | -41.04607 | -73.04195 | 13856 ft | 357 kts | 1° |
| 2026-05-04 21:05 | -41.02138 | -73.03659 | 14441 ft | 361 kts | 1° |
| 2026-05-04 21:05 | -40.99643 | -73.03120 | 15068 ft | 365 kts | 0° |
| 2026-05-04 21:05 | -40.97128 | -73.02578 | 15694 ft | 368 kts | 0° |
| 2026-05-04 21:06 | -40.94588 | -73.02036 | 16317 ft | 371 kts | 0° |
| 2026-05-04 21:06 | -40.92027 | -73.01492 | 16933 ft | 374 kts | 360° |
| 2026-05-04 21:06 | -40.89450 | -73.00939 | 17545 ft | 377 kts | 360° |
| 2026-05-04 21:06 | -40.86844 | -73.00379 | 18156 ft | 381 kts | 360° |
| 2026-05-04 21:07 | -40.84221 | -72.99815 | 18686 ft | 383 kts | 360° |
| 2026-05-04 21:07 | -40.81583 | -72.99247 | 19211 ft | 386 kts | 360° |
| 2026-05-04 21:07 | -40.78927 | -72.98680 | 19732 ft | 388 kts | 360° |
| 2026-05-04 21:07 | -40.76254 | -72.98112 | 20245 ft | 390 kts | 360° |
| 2026-05-04 21:08 | -40.73526 | -72.97533 | 20753 ft | 393 kts | 360° |
| 2026-05-04 21:08 | -40.70817 | -72.96959 | 21256 ft | 395 kts | 360° |
| 2026-05-04 21:08 | -40.68097 | -72.96382 | 21766 ft | 398 kts | 360° |
| 2026-05-04 21:08 | -40.65354 | -72.95801 | 22273 ft | 400 kts | 360° |
| 2026-05-04 21:09 | -40.62601 | -72.95219 | 22762 ft | 402 kts | 360° |
| 2026-05-04 21:09 | -40.59829 | -72.94631 | 23245 ft | 404 kts | 0° |
| 2026-05-04 21:09 | -40.57046 | -72.94038 | 23684 ft | 407 kts | 360° |
| 2026-05-04 21:09 | -40.54242 | -72.93441 | 24058 ft | 409 kts | 360° |
| 2026-05-04 21:10 | -40.51421 | -72.92845 | 24425 ft | 412 kts | 359° |
| 2026-05-04 21:10 | -40.48584 | -72.92248 | 24791 ft | 415 kts | 359° |
| 2026-05-04 21:10 | -40.46695 | -72.91851 | 25038 ft | 416 kts | 359° |
| 2026-05-04 21:10 | -40.43823 | -72.91249 | 25385 ft | 419 kts | 359° |
| 2026-05-04 21:11 | -40.40944 | -72.90644 | 25743 ft | 421 kts | 359° |
| 2026-05-04 21:11 | -40.38040 | -72.90030 | 26090 ft | 424 kts | 359° |
| 2026-05-04 21:11 | -40.35119 | -72.89414 | 26440 ft | 426 kts | 359° |
| 2026-05-04 21:11 | -40.32145 | -72.88807 | 26787 ft | 428 kts | 358° |
| 2026-05-04 21:12 | -40.29192 | -72.88277 | 27110 ft | 429 kts | 356° |
| 2026-05-04 21:12 | -40.26225 | -72.87801 | 27442 ft | 431 kts | 356° |
| 2026-05-04 21:12 | -40.23235 | -72.87347 | 27780 ft | 433 kts | 355° |
| 2026-05-04 21:12 | -40.20238 | -72.86896 | 28106 ft | 435 kts | 355° |
| 2026-05-04 21:13 | -40.17222 | -72.86432 | 28440 ft | 438 kts | 355° |
| 2026-05-04 21:13 | -40.14184 | -72.85952 | 28757 ft | 441 kts | 355° |
| 2026-05-04 21:13 | -40.11131 | -72.85458 | 29061 ft | 443 kts | 355° |
| 2026-05-04 21:13 | -40.08063 | -72.84955 | 29329 ft | 446 kts | 355° |
| 2026-05-04 21:14 | -40.04978 | -72.84449 | 29645 ft | 448 kts | 355° |
| 2026-05-04 21:14 | -40.01887 | -72.83941 | 29953 ft | 449 kts | 355° |
| 2026-05-04 21:14 | -39.98770 | -72.83427 | 30218 ft | 451 kts | 355° |
| 2026-05-04 21:14 | -39.95654 | -72.82916 | 30483 ft | 453 kts | 355° |
| 2026-05-04 21:15 | -39.92521 | -72.82407 | 30734 ft | 454 kts | 355° |
| 2026-05-04 21:15 | -39.89381 | -72.81900 | 30960 ft | 455 kts | 355° |
| 2026-05-04 21:15 | -39.86247 | -72.81393 | 31324 ft | 453 kts | 355° |
| 2026-05-04 21:15 | -39.83123 | -72.80885 | 31728 ft | 451 kts | 355° |
| 2026-05-04 21:16 | -39.80018 | -72.80378 | 32112 ft | 449 kts | 355° |
| 2026-05-04 21:16 | -39.76925 | -72.79870 | 32483 ft | 448 kts | 355° |
| 2026-05-04 21:16 | -39.73841 | -72.79365 | 32840 ft | 446 kts | 354° |
| 2026-05-04 21:16 | -39.70769 | -72.78868 | 33217 ft | 444 kts | 355° |
| 2026-05-04 21:17 | -39.67703 | -72.78351 | 33609 ft | 443 kts | 355° |
| 2026-05-04 21:17 | -39.64609 | -72.77798 | 33911 ft | 443 kts | 355° |
| 2026-05-04 21:17 | -39.58581 | -72.76666 | 33974 ft | 434 kts | 355° |
| 2026-05-04 21:18 | -39.52626 | -72.75553 | 33970 ft | 431 kts | 355° |
| 2026-05-04 21:18 | -39.46690 | -72.74486 | 33974 ft | 430 kts | 355° |
| 2026-05-04 21:19 | -39.40763 | -72.73430 | 33975 ft | 430 kts | 355° |
| 2026-05-04 21:19 | -39.34844 | -72.72352 | 33972 ft | 430 kts | 355° |
| 2026-05-04 21:20 | -39.28923 | -72.71273 | 33969 ft | 429 kts | 355° |
| 2026-05-04 21:20 | -39.23046 | -72.70214 | 33967 ft | 428 kts | 355° |
| 2026-05-04 21:21 | -39.17143 | -72.69161 | 33971 ft | 428 kts | 356° |
| 2026-05-04 21:21 | -39.11234 | -72.68096 | 33975 ft | 429 kts | 356° |
| 2026-05-04 21:22 | -39.05327 | -72.67027 | 33979 ft | 429 kts | 356° |
| 2026-05-04 21:22 | -38.99413 | -72.65962 | 33984 ft | 429 kts | 356° |
| 2026-05-04 21:23 | -38.93509 | -72.64911 | 33981 ft | 429 kts | 356° |
| 2026-05-04 21:23 | -38.87550 | -72.63684 | 33982 ft | 434 kts | 359° |
| 2026-05-04 21:24 | -38.81630 | -72.61979 | 33977 ft | 438 kts | 1° |
| 2026-05-04 21:24 | -38.75708 | -72.60156 | 33973 ft | 437 kts | 1° |
| 2026-05-04 21:25 | -38.69786 | -72.58410 | 33973 ft | 436 kts | 0° |
| 2026-05-04 21:25 | -38.63860 | -72.56737 | 33971 ft | 436 kts | 0° |
| 2026-05-04 21:26 | -38.57934 | -72.55068 | 33969 ft | 436 kts | 0° |
| 2026-05-04 21:26 | -38.52019 | -72.53392 | 33974 ft | 436 kts | 0° |
| 2026-05-04 21:27 | -38.46091 | -72.51710 | 33974 ft | 436 kts | 0° |
| 2026-05-04 21:27 | -38.40167 | -72.50043 | 33982 ft | 436 kts | 0° |
| 2026-05-04 21:28 | -38.34245 | -72.48377 | 33981 ft | 436 kts | 1° |
| 2026-05-04 21:28 | -38.28321 | -72.46715 | 33980 ft | 436 kts | 1° |
| 2026-05-04 21:29 | -38.22355 | -72.45032 | 33975 ft | 436 kts | 1° |
| 2026-05-04 21:29 | -38.16429 | -72.43360 | 33979 ft | 437 kts | 1° |
| 2026-05-04 21:30 | -38.10497 | -72.41696 | 33980 ft | 436 kts | 1° |
| 2026-05-04 21:30 | -38.04566 | -72.40044 | 33982 ft | 437 kts | 1° |
| 2026-05-04 21:31 | -37.95662 | -72.37568 | 33989 ft | 437 kts | 1° |
| 2026-05-04 21:32 | -37.89721 | -72.35913 | 33989 ft | 437 kts | 1° |
| 2026-05-04 21:32 | -37.83788 | -72.34268 | 33993 ft | 437 kts | 1° |
| 2026-05-04 21:33 | -37.77851 | -72.32628 | 33995 ft | 436 kts | 1° |
| 2026-05-04 21:33 | -37.71924 | -72.30989 | 33997 ft | 436 kts | 1° |
| 2026-05-04 21:34 | -37.65994 | -72.29346 | 34008 ft | 436 kts | 1° |
| 2026-05-04 21:34 | -37.60076 | -72.27649 | 34018 ft | 437 kts | 2° |
| 2026-05-04 21:35 | -37.54124 | -72.25800 | 34028 ft | 438 kts | 3° |
| 2026-05-04 21:35 | -37.48220 | -72.23953 | 34027 ft | 437 kts | 3° |
| 2026-05-04 21:36 | -37.42310 | -72.22149 | 34027 ft | 437 kts | 3° |
| 2026-05-04 21:36 | -37.36400 | -72.20356 | 34019 ft | 437 kts | 3° |
| 2026-05-04 21:37 | -37.30490 | -72.18563 | 34010 ft | 437 kts | 3° |
| 2026-05-04 21:37 | -37.24573 | -72.16777 | 34005 ft | 437 kts | 3° |
| 2026-05-04 21:38 | -37.18648 | -72.14985 | 34001 ft | 438 kts | 3° |
| 2026-05-04 21:38 | -37.12719 | -72.13196 | 33994 ft | 439 kts | 4° |
| 2026-05-04 21:39 | -37.06786 | -72.11405 | 34000 ft | 439 kts | 4° |
| 2026-05-04 21:39 | -37.00839 | -72.09612 | 33994 ft | 440 kts | 4° |
| 2026-05-04 21:40 | -36.94882 | -72.07815 | 33998 ft | 440 kts | 4° |
| 2026-05-04 21:40 | -36.88879 | -72.06016 | 33994 ft | 441 kts | 4° |
| 2026-05-04 21:41 | -36.82912 | -72.04226 | 33997 ft | 441 kts | 4° |
| 2026-05-04 21:41 | -36.77953 | -72.02741 | 33999 ft | 441 kts | 4° |
| 2026-05-04 21:42 | -36.71978 | -72.00958 | 34004 ft | 441 kts | 4° |
| 2026-05-04 21:42 | -36.66001 | -71.99173 | 34004 ft | 442 kts | 4° |
| 2026-05-04 21:43 | -36.60028 | -71.97387 | 34006 ft | 442 kts | 4° |
| 2026-05-04 21:43 | -36.54053 | -71.95610 | 34006 ft | 441 kts | 4° |
| 2026-05-04 21:44 | -36.48038 | -71.93828 | 34008 ft | 441 kts | 4° |
| 2026-05-04 21:44 | -36.42068 | -71.92059 | 34009 ft | 441 kts | 4° |
| 2026-05-04 21:45 | -36.36098 | -71.90301 | 34004 ft | 441 kts | 4° |
| 2026-05-04 21:45 | -36.30130 | -71.88539 | 34008 ft | 441 kts | 4° |
| 2026-05-04 21:46 | -36.24158 | -71.86769 | 34004 ft | 441 kts | 4° |
| 2026-05-04 21:46 | -36.18186 | -71.85004 | 34007 ft | 441 kts | 4° |
| 2026-05-04 21:47 | -36.12207 | -71.83239 | 34006 ft | 441 kts | 4° |
| 2026-05-04 21:47 | -36.06235 | -71.81479 | 34005 ft | 441 kts | 4° |
| 2026-05-04 21:48 | -36.00261 | -71.79733 | 34007 ft | 441 kts | 4° |
| 2026-05-04 21:48 | -35.94284 | -71.77997 | 34010 ft | 441 kts | 5° |
| 2026-05-04 21:49 | -35.88315 | -71.76252 | 34004 ft | 441 kts | 5° |
| 2026-05-04 21:49 | -35.82310 | -71.74492 | 34005 ft | 441 kts | 5° |
| 2026-05-04 21:50 | -35.76337 | -71.72746 | 34007 ft | 441 kts | 5° |
| 2026-05-04 21:50 | -35.70373 | -71.71011 | 34006 ft | 441 kts | 5° |
| 2026-05-04 21:51 | -35.64404 | -71.69282 | 34003 ft | 440 kts | 5° |
| 2026-05-04 21:51 | -35.58442 | -71.67560 | 34001 ft | 441 kts | 5° |
| 2026-05-04 21:52 | -35.52471 | -71.65827 | 33996 ft | 441 kts | 5° |
| 2026-05-04 21:52 | -35.46491 | -71.64056 | 33990 ft | 442 kts | 5° |
| 2026-05-04 21:53 | -35.40495 | -71.62305 | 33988 ft | 443 kts | 5° |
| 2026-05-04 21:53 | -35.34485 | -71.60578 | 33994 ft | 444 kts | 5° |
| 2026-05-04 21:54 | -35.28464 | -71.58845 | 33993 ft | 445 kts | 5° |
| 2026-05-04 21:54 | -35.22392 | -71.57100 | 33988 ft | 445 kts | 5° |
| 2026-05-04 21:55 | -35.16357 | -71.55372 | 33993 ft | 446 kts | 5° |
| 2026-05-04 21:55 | -35.10307 | -71.53629 | 33986 ft | 447 kts | 6° |
| 2026-05-04 21:56 | -35.04256 | -71.51898 | 33981 ft | 447 kts | 5° |
| 2026-05-04 21:56 | -34.98197 | -71.50172 | 33983 ft | 447 kts | 6° |
| 2026-05-04 21:57 | -34.92145 | -71.48435 | 33983 ft | 447 kts | 6° |
| 2026-05-04 21:57 | -34.86089 | -71.46701 | 33985 ft | 447 kts | 6° |
| 2026-05-04 21:58 | -34.80031 | -71.44979 | 33987 ft | 447 kts | 6° |
| 2026-05-04 21:58 | -34.73971 | -71.43262 | 33694 ft | 448 kts | 6° |
| 2026-05-04 21:58 | -34.70934 | -71.42399 | 33419 ft | 447 kts | 6° |
| 2026-05-04 21:59 | -34.67910 | -71.41541 | 33161 ft | 446 kts | 6° |
| 2026-05-04 21:59 | -34.64908 | -71.40600 | 32893 ft | 448 kts | 11° |
| 2026-05-04 21:59 | -34.61985 | -71.39234 | 32625 ft | 450 kts | 15° |
| 2026-05-04 21:59 | -34.59087 | -71.37802 | 32373 ft | 449 kts | 15° |
| 2026-05-04 22:00 | -34.56204 | -71.36370 | 32125 ft | 447 kts | 15° |
| 2026-05-04 22:00 | -34.53330 | -71.34946 | 31864 ft | 445 kts | 14° |
| 2026-05-04 22:00 | -34.50439 | -71.33519 | 31610 ft | 443 kts | 14° |
| 2026-05-04 22:00 | -34.47582 | -71.32113 | 31360 ft | 441 kts | 14° |
| 2026-05-04 22:01 | -34.44748 | -71.30718 | 31112 ft | 439 kts | 14° |
| 2026-05-04 22:01 | -34.41916 | -71.29329 | 30867 ft | 438 kts | 14° |
| 2026-05-04 22:01 | -34.39102 | -71.27955 | 30624 ft | 436 kts | 13° |
| 2026-05-04 22:01 | -34.36282 | -71.26579 | 30386 ft | 436 kts | 14° |
| 2026-05-04 22:02 | -34.33485 | -71.25211 | 30147 ft | 433 kts | 14° |
| 2026-05-04 22:02 | -34.30692 | -71.23844 | 29875 ft | 432 kts | 14° |
| 2026-05-04 22:02 | -34.27916 | -71.22482 | 29596 ft | 430 kts | 14° |
| 2026-05-04 22:02 | -34.25149 | -71.21130 | 29319 ft | 428 kts | 13° |
| 2026-05-04 22:03 | -34.22391 | -71.19787 | 29050 ft | 426 kts | 13° |
| 2026-05-04 22:03 | -34.19649 | -71.18451 | 28769 ft | 425 kts | 13° |
| 2026-05-04 22:03 | -34.16909 | -71.17112 | 28499 ft | 423 kts | 13° |
| 2026-05-04 22:03 | -34.14202 | -71.15786 | 28029 ft | 418 kts | 13° |
| 2026-05-04 22:04 | -34.11517 | -71.14471 | 27525 ft | 415 kts | 13° |
| 2026-05-04 22:04 | -34.08856 | -71.13168 | 27049 ft | 411 kts | 13° |
| 2026-05-04 22:04 | -34.06213 | -71.11880 | 26561 ft | 408 kts | 13° |
| 2026-05-04 22:04 | -34.03591 | -71.10612 | 26102 ft | 405 kts | 13° |
| 2026-05-04 22:05 | -34.00986 | -71.09355 | 25634 ft | 402 kts | 13° |
| 2026-05-04 22:05 | -33.98403 | -71.08116 | 25186 ft | 398 kts | 13° |
| 2026-05-04 22:05 | -33.95843 | -71.06891 | 24736 ft | 394 kts | 13° |
| 2026-05-04 22:05 | -33.93273 | -71.05657 | 24280 ft | 391 kts | 13° |
| 2026-05-04 22:06 | -33.90775 | -71.04453 | 23836 ft | 390 kts | 14° |
| 2026-05-04 22:06 | -33.88225 | -71.03220 | 23327 ft | 390 kts | 14° |
| 2026-05-04 22:06 | -33.85715 | -71.02004 | 22835 ft | 388 kts | 14° |
| 2026-05-04 22:06 | -33.83227 | -71.00794 | 22380 ft | 385 kts | 14° |
| 2026-05-04 22:07 | -33.80754 | -70.99593 | 21922 ft | 382 kts | 14° |
| 2026-05-04 22:07 | -33.78297 | -70.98403 | 21458 ft | 380 kts | 14° |
| 2026-05-04 22:07 | -33.75846 | -70.97220 | 20990 ft | 378 kts | 15° |
| 2026-05-04 22:07 | -33.73476 | -70.96077 | 20544 ft | 377 kts | 15° |
| 2026-05-04 22:08 | -33.71045 | -70.94904 | 20077 ft | 375 kts | 15° |
| 2026-05-04 22:08 | -33.68633 | -70.93742 | 19608 ft | 374 kts | 15° |
| 2026-05-04 22:08 | -33.66216 | -70.92582 | 19153 ft | 373 kts | 15° |
| 2026-05-04 22:08 | -33.63818 | -70.91433 | 18689 ft | 372 kts | 16° |
| 2026-05-04 22:09 | -33.61419 | -70.90282 | 18232 ft | 371 kts | 16° |
| 2026-05-04 22:09 | -33.59028 | -70.89134 | 17739 ft | 369 kts | 16° |
| 2026-05-04 22:09 | -33.56670 | -70.87943 | 17293 ft | 368 kts | 21° |
| 2026-05-04 22:09 | -33.54452 | -70.86385 | 16844 ft | 369 kts | 26° |
| 2026-05-04 22:10 | -33.52274 | -70.84777 | 16399 ft | 367 kts | 26° |
| 2026-05-04 22:10 | -33.50113 | -70.83181 | 15961 ft | 364 kts | 27° |
| 2026-05-04 22:10 | -33.47962 | -70.81598 | 15526 ft | 362 kts | 27° |
| 2026-05-04 22:10 | -33.45886 | -70.80073 | 15103 ft | 359 kts | 27° |
| 2026-05-04 22:11 | -33.43774 | -70.78518 | 14832 ft | 350 kts | 27° |
| 2026-05-04 22:11 | -33.41771 | -70.77037 | 14702 ft | 328 kts | 27° |
| 2026-05-04 22:11 | -33.39875 | -70.75635 | 14373 ft | 315 kts | 27° |
| 2026-05-04 22:11 | -33.38029 | -70.74281 | 13886 ft | 309 kts | 26° |
| 2026-05-04 22:12 | -33.36204 | -70.72949 | 13328 ft | 305 kts | 27° |
| 2026-05-04 22:12 | -33.34403 | -70.71636 | 12738 ft | 301 kts | 27° |
| 2026-05-04 22:12 | -33.32620 | -70.70362 | 12133 ft | 296 kts | 22° |
| 2026-05-04 22:12 | -33.30716 | -70.69541 | 11595 ft | 288 kts | 8° |
| 2026-05-04 22:13 | -33.29388 | -70.69341 | 11209 ft | 283 kts | 358° |
| 2026-05-04 22:13 | -33.27446 | -70.69495 | 10606 ft | 279 kts | 352° |
| 2026-05-04 22:13 | -33.25522 | -70.69737 | 10012 ft | 277 kts | 352° |
| 2026-05-04 22:13 | -33.23612 | -70.69969 | 9380 ft | 275 kts | 353° |
| 2026-05-04 22:14 | -33.21710 | -70.70196 | 8725 ft | 274 kts | 353° |
| 2026-05-04 22:14 | -33.19821 | -70.70421 | 8083 ft | 272 kts | 353° |
| 2026-05-04 22:14 | -33.17940 | -70.70650 | 7447 ft | 271 kts | 353° |
| 2026-05-04 22:14 | -33.16071 | -70.70910 | 6821 ft | 269 kts | 353° |
| 2026-05-04 22:15 | -33.14213 | -70.71184 | 6235 ft | 269 kts | 353° |
| 2026-05-04 22:15 | -33.12370 | -70.71461 | 6037 ft | 262 kts | 353° |
| 2026-05-04 22:15 | -33.10609 | -70.71726 | 6009 ft | 247 kts | 353° |
| 2026-05-04 22:15 | -33.08935 | -70.71974 | 6015 ft | 240 kts | 353° |
| 2026-05-04 22:16 | -33.07333 | -70.72460 | 5744 ft | 238 kts | 331° |
| 2026-05-04 22:16 | -33.06154 | -70.73810 | 5400 ft | 239 kts | 299° |
| 2026-05-04 22:16 | -33.05716 | -70.75708 | 5070 ft | 239 kts | 270° |
| 2026-05-04 22:16 | -33.06058 | -70.77629 | 5005 ft | 240 kts | 243° |
| 2026-05-04 22:17 | -33.07082 | -70.79195 | 5022 ft | 241 kts | 218° |
| 2026-05-04 22:17 | -33.08532 | -70.80052 | 5009 ft | 229 kts | 192° |
| 2026-05-04 22:17 | -33.10108 | -70.80151 | 5016 ft | 223 kts | 176° |
| 2026-05-04 22:17 | -33.11636 | -70.80065 | 5016 ft | 222 kts | 176° |
| 2026-05-04 22:18 | -33.13200 | -70.79979 | 5015 ft | 222 kts | 176° |
| 2026-05-04 22:18 | -33.14745 | -70.79896 | 5011 ft | 220 kts | 176° |
| 2026-05-04 22:18 | -33.16230 | -70.79817 | 5016 ft | 208 kts | 177° |
| 2026-05-04 22:18 | -33.17658 | -70.79741 | 5030 ft | 203 kts | 176° |
| 2026-05-04 22:19 | -33.19064 | -70.79665 | 4992 ft | 202 kts | 176° |
| 2026-05-04 22:19 | -33.20461 | -70.79591 | 4812 ft | 202 kts | 177° |
| 2026-05-04 22:19 | -33.21919 | -70.79512 | 4555 ft | 210 kts | 177° |
| 2026-05-04 22:19 | -33.23356 | -70.79435 | 4285 ft | 204 kts | 177° |
| 2026-05-04 22:20 | -33.24750 | -70.79361 | 4024 ft | 198 kts | 177° |
| 2026-05-04 22:20 | -33.26090 | -70.79289 | 3768 ft | 186 kts | 177° |
| 2026-05-04 22:20 | -33.27323 | -70.79223 | 3545 ft | 168 kts | 177° |
| 2026-05-04 22:20 | -33.28447 | -70.79163 | 3339 ft | 157 kts | 177° |
| 2026-05-04 22:21 | -33.29520 | -70.79102 | 3137 ft | 152 kts | 177° |
| 2026-05-04 22:21 | -33.30566 | -70.79042 | 2937 ft | 149 kts | 177° |
| 2026-05-04 22:21 | -33.31592 | -70.78986 | 2751 ft | 145 kts | 176° |
| 2026-05-04 22:21 | -33.32592 | -70.78944 | 2550 ft | 143 kts | 178° |
| 2026-05-04 22:22 | -33.33580 | -70.78912 | 2310 ft | 141 kts | 176° |
| 2026-05-04 22:22 | -33.34556 | -70.78868 | 2137 ft | 140 kts | 176° |
| 2026-05-04 22:22 | -33.35529 | -70.78788 | 1995 ft | 140 kts | 175° |
| 2026-05-04 22:22 | -33.36500 | -70.78725 | 1813 ft | 140 kts | 177° |
| 2026-05-04 22:23 | -33.37477 | -70.78671 | 1676 ft | 141 kts | 176° |
| 2026-05-04 22:23 | -33.38434 | -70.78623 | 1564 ft | 126 kts | 177° |
| 2026-05-04 22:23 | -33.39173 | -70.78587 | 1564 ft | 73 kts | 178° |
| 2026-05-04 22:23 | -33.39415 | -70.78578 | 1564 ft | 26 kts | 182° |
| 2026-05-04 22:24 | -33.39587 | -70.78632 | 1564 ft | 22 kts | 205° |
| 2026-05-04 22:24 | -33.39692 | -70.78701 | 1565 ft | 17 kts | 209° |
| 2026-05-04 22:24 | -33.39756 | -70.78811 | 1564 ft | 16 kts | 268° |
| 2026-05-04 22:24 | -33.39773 | -70.78868 | 1564 ft | 6 kts | 212° |
| 2026-05-04 22:25 | -33.39810 | -70.78897 | 1564 ft | 6 kts | 231° |
| 2026-05-04 22:25 | -33.39830 | -70.78939 | 1564 ft | 5 kts | 250° |
| 2026-05-04 22:25 | -33.39834 | -70.78973 | 1564 ft | 3 kts | 263° |
| 2026-05-04 22:25 | -33.39851 | -70.78988 | 1564 ft | 3 kts | 200° |
| 2026-05-04 22:26 | -33.39870 | -70.78989 | 1564 ft | 2 kts | 180° |
| 2026-05-04 22:26 | -33.39889 | -70.78989 | 1564 ft | 3 kts | 179° |
| 2026-05-04 22:26 | -33.39893 | -70.78989 | 1564 ft | 0 kts | 177° |